sensor_id;sensor_type;location;lat;lon;timestamp;temperature;humidity
15072;DHT22;7635;56.696;13.002;2023-03-23T00:03:18;7.60;99.90
15072;DHT22;7635;56.696;13.002;2023-03-23T00:05:46;7.70;99.90
15072;DHT22;7635;56.696;13.002;2023-03-23T00:10:56;7.70;99.90
15072;DHT22;7635;56.696;13.002;2023-03-23T00:13:36;7.70;99.90
15072;DHT22;7635;56.696;13.002;2023-03-23T00:16:19;7.70;99.90
15072;DHT22;7635;56.696;13.002;2023-03-23T00:19:04;7.80;99.90
15072;DHT22;7635;56.696;13.002;2023-03-23T00:21:58;7.80;99.90
15072;DHT22;7635;56.696;13.002;2023-03-23T00:24:26;7.80;99.90
15072;DHT22;7635;56.696;13.002;2023-03-23T00:27:10;7.80;99.90
15072;DHT22;7635;56.696;13.002;2023-03-23T00:29:40;7.80;99.90
15072;DHT22;7635;56.696;13.002;2023-03-23T00:32:11;7.80;99.90
15072;DHT22;7635;56.696;13.002;2023-03-23T00:35:09;7.80;99.90
15072;DHT22;7635;56.696;13.002;2023-03-23T00:37:37;7.90;99.90
15072;DHT22;7635;56.696;13.002;2023-03-23T00:40:11;7.80;99.90
15072;DHT22;7635;56.696;13.002;2023-03-23T00:42:38;7.90;99.90
15072;DHT22;7635;56.696;13.002;2023-03-23T00:45:13;7.90;99.90
15072;DHT22;7635;56.696;13.002;2023-03-23T00:47:49;7.90;99.90
15072;DHT22;7635;56.696;13.002;2023-03-23T00:50:20;7.90;99.90
15072;DHT22;7635;56.696;13.002;2023-03-23T00:52:47;7.90;99.90
15072;DHT22;7635;56.696;13.002;2023-03-23T00:55:27;7.90;99.90
15072;DHT22;7635;56.696;13.002;2023-03-23T00:58:18;7.90;99.90
15072;DHT22;7635;56.696;13.002;2023-03-23T01:01:22;7.90;99.90
15072;DHT22;7635;56.696;13.002;2023-03-23T01:04:13;7.90;99.90
15072;DHT22;7635;56.696;13.002;2023-03-23T01:06:43;7.90;99.90
15072;DHT22;7635;56.696;13.002;2023-03-23T01:09:17;7.90;99.90
15072;DHT22;7635;56.696;13.002;2023-03-23T01:11:51;7.90;99.90
15072;DHT22;7635;56.696;13.002;2023-03-23T01:14:21;7.90;99.90
15072;DHT22;7635;56.696;13.002;2023-03-23T01:16:48;7.90;99.90
15072;DHT22;7635;56.696;13.002;2023-03-23T01:19:28;7.90;99.90
15072;DHT22;7635;56.696;13.002;2023-03-23T01:21:56;7.90;99.90
15072;DHT22;7635;56.696;13.002;2023-03-23T01:24:42;7.90;99.90
15072;DHT22;7635;56.696;13.002;2023-03-23T01:30:06;7.90;99.90
15072;DHT22;7635;56.696;13.002;2023-03-23T01:32:49;8.00;99.90
15072;DHT22;7635;56.696;13.002;2023-03-23T01:35:37;8.00;99.90
15072;DHT22;7635;56.696;13.002;2023-03-23T01:38:10;8.00;99.90
15072;DHT22;7635;56.696;13.002;2023-03-23T01:40:46;8.00;99.90
15072;DHT22;7635;56.696;13.002;2023-03-23T01:43:14;8.00;99.90
15072;DHT22;7635;56.696;13.002;2023-03-23T01:45:42;8.00;99.90
15072;DHT22;7635;56.696;13.002;2023-03-23T01:48:13;8.10;99.90
15072;DHT22;7635;56.696;13.002;2023-03-23T01:51:06;8.10;99.90
15072;DHT22;7635;56.696;13.002;2023-03-23T01:53:38;8.10;99.90
15072;DHT22;7635;56.696;13.002;2023-03-23T01:56:08;8.10;99.90
15072;DHT22;7635;56.696;13.002;2023-03-23T01:58:38;8.10;99.90
15072;DHT22;7635;56.696;13.002;2023-03-23T02:01:09;8.10;99.90
15072;DHT22;7635;56.696;13.002;2023-03-23T02:03:38;8.10;99.90
15072;DHT22;7635;56.696;13.002;2023-03-23T02:06:08;8.10;99.90
15072;DHT22;7635;56.696;13.002;2023-03-23T02:08:37;8.10;99.90
15072;DHT22;7635;56.696;13.002;2023-03-23T02:11:12;8.10;99.90
15072;DHT22;7635;56.696;13.002;2023-03-23T02:13:50;8.20;99.90
15072;DHT22;7635;56.696;13.002;2023-03-23T02:16:23;8.10;99.90
15072;DHT22;7635;56.696;13.002;2023-03-23T02:19:00;8.10;99.90
15072;DHT22;7635;56.696;13.002;2023-03-23T02:21:54;8.10;99.90
15072;DHT22;7635;56.696;13.002;2023-03-23T02:24:40;8.20;99.90
15072;DHT22;7635;56.696;13.002;2023-03-23T02:27:13;8.20;99.90
15072;DHT22;7635;56.696;13.002;2023-03-23T02:30:02;8.20;99.90
15072;DHT22;7635;56.696;13.002;2023-03-23T02:36:04;8.20;99.90
15072;DHT22;7635;56.696;13.002;2023-03-23T02:38:44;8.20;99.90
15072;DHT22;7635;56.696;13.002;2023-03-23T02:41:19;8.20;99.90
15072;DHT22;7635;56.696;13.002;2023-03-23T02:43:53;8.20;99.90
15072;DHT22;7635;56.696;13.002;2023-03-23T02:46:35;8.20;99.90
15072;DHT22;7635;56.696;13.002;2023-03-23T02:49:04;8.20;99.90
15072;DHT22;7635;56.696;13.002;2023-03-23T02:51:34;8.20;99.90
15072;DHT22;7635;56.696;13.002;2023-03-23T02:54:03;8.20;99.90
15072;DHT22;7635;56.696;13.002;2023-03-23T02:56:31;8.20;99.90
15072;DHT22;7635;56.696;13.002;2023-03-23T02:59:20;8.20;99.90
15072;DHT22;7635;56.696;13.002;2023-03-23T03:01:59;8.20;99.90
15072;DHT22;7635;56.696;13.002;2023-03-23T03:04:31;8.20;99.90
15072;DHT22;7635;56.696;13.002;2023-03-23T03:07:35;8.20;99.90
15072;DHT22;7635;56.696;13.002;2023-03-23T03:10:08;8.20;99.90
15072;DHT22;7635;56.696;13.002;2023-03-23T03:15:54;8.20;99.90
15072;DHT22;7635;56.696;13.002;2023-03-23T03:18:26;8.20;99.90
15072;DHT22;7635;56.696;13.002;2023-03-23T03:21:00;8.20;99.90
15072;DHT22;7635;56.696;13.002;2023-03-23T03:23:30;8.20;99.90
15072;DHT22;7635;56.696;13.002;2023-03-23T03:26:00;8.20;99.90
15072;DHT22;7635;56.696;13.002;2023-03-23T03:28:31;8.20;99.90
15072;DHT22;7635;56.696;13.002;2023-03-23T03:31:03;8.20;99.90
15072;DHT22;7635;56.696;13.002;2023-03-23T03:33:37;8.20;99.90
15072;DHT22;7635;56.696;13.002;2023-03-23T03:36:06;8.20;99.90
15072;DHT22;7635;56.696;13.002;2023-03-23T03:38:43;8.20;99.90
15072;DHT22;7635;56.696;13.002;2023-03-23T03:41:10;8.20;99.90
15072;DHT22;7635;56.696;13.002;2023-03-23T03:43:37;8.30;99.90
15072;DHT22;7635;56.696;13.002;2023-03-23T03:46:04;8.20;99.90
15072;DHT22;7635;56.696;13.002;2023-03-23T03:48:31;8.30;99.90
15072;DHT22;7635;56.696;13.002;2023-03-23T03:51:13;8.30;99.90
15072;DHT22;7635;56.696;13.002;2023-03-23T03:53:50;8.30;99.90
15072;DHT22;7635;56.696;13.002;2023-03-23T03:56:23;8.30;99.90
15072;DHT22;7635;56.696;13.002;2023-03-23T03:58:57;8.30;99.90
15072;DHT22;7635;56.696;13.002;2023-03-23T04:01:31;8.30;99.90
15072;DHT22;7635;56.696;13.002;2023-03-23T04:03:58;8.30;99.90
15072;DHT22;7635;56.696;13.002;2023-03-23T04:06:31;8.30;99.90
15072;DHT22;7635;56.696;13.002;2023-03-23T04:09:03;8.30;99.90
15072;DHT22;7635;56.696;13.002;2023-03-23T04:11:31;8.30;99.90
15072;DHT22;7635;56.696;13.002;2023-03-23T04:13:58;8.40;99.90
15072;DHT22;7635;56.696;13.002;2023-03-23T04:16:31;8.40;99.90
15072;DHT22;7635;56.696;13.002;2023-03-23T04:19:24;8.30;99.90
15072;DHT22;7635;56.696;13.002;2023-03-23T04:24:32;8.40;99.90
15072;DHT22;7635;56.696;13.002;2023-03-23T04:27:00;8.40;99.90
15072;DHT22;7635;56.696;13.002;2023-03-23T04:32:31;8.40;99.90
15072;DHT22;7635;56.696;13.002;2023-03-23T04:35:23;8.40;99.90
15072;DHT22;7635;56.696;13.002;2023-03-23T04:37:51;8.40;99.90
15072;DHT22;7635;56.696;13.002;2023-03-23T04:40:21;8.40;99.90
15072;DHT22;7635;56.696;13.002;2023-03-23T04:42:48;8.40;99.90
15072;DHT22;7635;56.696;13.002;2023-03-23T04:45:34;8.40;99.90
15072;DHT22;7635;56.696;13.002;2023-03-23T04:48:03;8.40;99.90
15072;DHT22;7635;56.696;13.002;2023-03-23T04:50:33;8.40;99.90
15072;DHT22;7635;56.696;13.002;2023-03-23T04:53:07;8.40;99.90
15072;DHT22;7635;56.696;13.002;2023-03-23T04:55:36;8.40;99.90
15072;DHT22;7635;56.696;13.002;2023-03-23T04:58:04;8.40;99.90
15072;DHT22;7635;56.696;13.002;2023-03-23T05:00:40;8.40;99.90
15072;DHT22;7635;56.696;13.002;2023-03-23T05:03:09;8.40;99.90
15072;DHT22;7635;56.696;13.002;2023-03-23T05:05:39;8.40;99.90
15072;DHT22;7635;56.696;13.002;2023-03-23T05:08:06;8.40;99.90
15072;DHT22;7635;56.696;13.002;2023-03-23T05:10:34;8.40;99.90
15072;DHT22;7635;56.696;13.002;2023-03-23T05:13:16;8.40;99.90
15072;DHT22;7635;56.696;13.002;2023-03-23T05:15:45;8.40;99.90
15072;DHT22;7635;56.696;13.002;2023-03-23T05:18:21;8.40;99.90
15072;DHT22;7635;56.696;13.002;2023-03-23T05:20:49;8.40;99.90
15072;DHT22;7635;56.696;13.002;2023-03-23T05:23:18;8.40;99.90
15072;DHT22;7635;56.696;13.002;2023-03-23T05:25:54;8.40;99.90
15072;DHT22;7635;56.696;13.002;2023-03-23T05:28:27;8.40;99.90
15072;DHT22;7635;56.696;13.002;2023-03-23T05:31:06;8.40;99.90
15072;DHT22;7635;56.696;13.002;2023-03-23T05:33:45;8.40;99.90
15072;DHT22;7635;56.696;13.002;2023-03-23T05:36:12;8.40;99.90
15072;DHT22;7635;56.696;13.002;2023-03-23T05:41:38;8.50;99.90
15072;DHT22;7635;56.696;13.002;2023-03-23T05:44:07;8.50;99.90
15072;DHT22;7635;56.696;13.002;2023-03-23T05:46:41;8.50;99.90
15072;DHT22;7635;56.696;13.002;2023-03-23T05:49:13;8.50;99.90
15072;DHT22;7635;56.696;13.002;2023-03-23T05:51:44;8.50;99.90
15072;DHT22;7635;56.696;13.002;2023-03-23T05:54:23;8.60;99.90
15072;DHT22;7635;56.696;13.002;2023-03-23T05:56:52;8.60;99.90
15072;DHT22;7635;56.696;13.002;2023-03-23T05:59:28;8.60;99.90
15072;DHT22;7635;56.696;13.002;2023-03-23T06:01:55;8.60;99.90
15072;DHT22;7635;56.696;13.002;2023-03-23T06:04:32;8.60;99.90
15072;DHT22;7635;56.696;13.002;2023-03-23T06:07:08;8.60;99.90
15072;DHT22;7635;56.696;13.002;2023-03-23T06:09:51;8.60;99.90
15072;DHT22;7635;56.696;13.002;2023-03-23T06:12:19;8.60;99.90
15072;DHT22;7635;56.696;13.002;2023-03-23T06:15:04;8.60;99.90
15072;DHT22;7635;56.696;13.002;2023-03-23T06:17:32;8.50;99.90
15072;DHT22;7635;56.696;13.002;2023-03-23T06:20:18;8.60;99.90
15072;DHT22;7635;56.696;13.002;2023-03-23T06:22:44;8.60;99.90
15072;DHT22;7635;56.696;13.002;2023-03-23T06:25:11;8.60;99.90
15072;DHT22;7635;56.696;13.002;2023-03-23T06:27:59;8.60;99.90
15072;DHT22;7635;56.696;13.002;2023-03-23T06:30:32;8.60;99.90
15072;DHT22;7635;56.696;13.002;2023-03-23T06:35:42;8.60;99.90
15072;DHT22;7635;56.696;13.002;2023-03-23T06:38:09;8.60;99.90
15072;DHT22;7635;56.696;13.002;2023-03-23T06:40:47;8.60;99.90
15072;DHT22;7635;56.696;13.002;2023-03-23T06:43:16;8.60;99.90
15072;DHT22;7635;56.696;13.002;2023-03-23T06:45:43;8.60;99.90
15072;DHT22;7635;56.696;13.002;2023-03-23T06:48:11;8.60;99.90
15072;DHT22;7635;56.696;13.002;2023-03-23T06:50:51;8.60;99.90
15072;DHT22;7635;56.696;13.002;2023-03-23T06:53:21;8.60;99.90
15072;DHT22;7635;56.696;13.002;2023-03-23T06:55:53;8.60;99.90
15072;DHT22;7635;56.696;13.002;2023-03-23T06:58:32;8.60;99.90
15072;DHT22;7635;56.696;13.002;2023-03-23T07:01:06;8.50;99.90
15072;DHT22;7635;56.696;13.002;2023-03-23T07:03:44;8.50;99.90
15072;DHT22;7635;56.696;13.002;2023-03-23T07:06:33;8.50;99.90
15072;DHT22;7635;56.696;13.002;2023-03-23T07:09:00;8.50;99.90
15072;DHT22;7635;56.696;13.002;2023-03-23T07:11:37;8.50;99.90
15072;DHT22;7635;56.696;13.002;2023-03-23T07:14:11;8.50;99.90
15072;DHT22;7635;56.696;13.002;2023-03-23T07:16:41;8.50;99.90
15072;DHT22;7635;56.696;13.002;2023-03-23T07:19:20;8.50;99.90
15072;DHT22;7635;56.696;13.002;2023-03-23T07:21:57;8.50;99.90
15072;DHT22;7635;56.696;13.002;2023-03-23T07:24:27;8.50;99.90
15072;DHT22;7635;56.696;13.002;2023-03-23T07:26:54;8.60;99.90
15072;DHT22;7635;56.696;13.002;2023-03-23T07:29:23;8.60;99.90
15072;DHT22;7635;56.696;13.002;2023-03-23T07:32:04;8.60;99.90
15072;DHT22;7635;56.696;13.002;2023-03-23T07:34:34;8.70;99.90
15072;DHT22;7635;56.696;13.002;2023-03-23T07:37:14;8.70;99.90
15072;DHT22;7635;56.696;13.002;2023-03-23T07:39:41;8.70;99.90
15072;DHT22;7635;56.696;13.002;2023-03-23T07:42:12;8.70;99.90
15072;DHT22;7635;56.696;13.002;2023-03-23T07:44:43;8.70;99.90
15072;DHT22;7635;56.696;13.002;2023-03-23T07:47:27;8.70;99.90
15072;DHT22;7635;56.696;13.002;2023-03-23T07:50:06;8.80;99.90
15072;DHT22;7635;56.696;13.002;2023-03-23T07:52:33;8.80;99.90
15072;DHT22;7635;56.696;13.002;2023-03-23T07:55:07;8.80;99.90
15072;DHT22;7635;56.696;13.002;2023-03-23T07:57:48;8.80;99.90
15072;DHT22;7635;56.696;13.002;2023-03-23T08:00:18;8.70;99.90
15072;DHT22;7635;56.696;13.002;2023-03-23T08:02:47;8.80;99.90
15072;DHT22;7635;56.696;13.002;2023-03-23T08:05:14;8.80;99.90
15072;DHT22;7635;56.696;13.002;2023-03-23T08:07:51;8.80;99.90
15072;DHT22;7635;56.696;13.002;2023-03-23T08:10:23;8.80;99.90
15072;DHT22;7635;56.696;13.002;2023-03-23T08:12:53;8.80;99.90
15072;DHT22;7635;56.696;13.002;2023-03-23T08:15:23;8.80;99.90
15072;DHT22;7635;56.696;13.002;2023-03-23T08:17:50;8.80;99.90
15072;DHT22;7635;56.696;13.002;2023-03-23T08:20:38;8.80;99.90
15072;DHT22;7635;56.696;13.002;2023-03-23T08:23:19;8.80;99.90
15072;DHT22;7635;56.696;13.002;2023-03-23T08:25:47;8.80;99.90
15072;DHT22;7635;56.696;13.002;2023-03-23T08:28:20;8.70;99.90
15072;DHT22;7635;56.696;13.002;2023-03-23T08:30:58;8.70;99.90
15072;DHT22;7635;56.696;13.002;2023-03-23T08:33:40;8.70;99.90
15072;DHT22;7635;56.696;13.002;2023-03-23T08:36:14;8.80;99.90
15072;DHT22;7635;56.696;13.002;2023-03-23T08:38:56;8.80;99.90
15072;DHT22;7635;56.696;13.002;2023-03-23T08:41:36;8.90;99.90
15072;DHT22;7635;56.696;13.002;2023-03-23T08:44:04;8.90;99.90
15072;DHT22;7635;56.696;13.002;2023-03-23T08:46:35;8.90;99.90
15072;DHT22;7635;56.696;13.002;2023-03-23T08:49:03;8.90;99.90
15072;DHT22;7635;56.696;13.002;2023-03-23T08:51:31;8.90;99.90
15072;DHT22;7635;56.696;13.002;2023-03-23T08:53:58;8.90;99.90
15072;DHT22;7635;56.696;13.002;2023-03-23T08:56:26;8.90;99.90
15072;DHT22;7635;56.696;13.002;2023-03-23T08:58:59;8.80;99.90
15072;DHT22;7635;56.696;13.002;2023-03-23T09:01:26;8.80;99.90
15072;DHT22;7635;56.696;13.002;2023-03-23T09:03:54;8.80;99.90
15072;DHT22;7635;56.696;13.002;2023-03-23T09:06:36;8.80;99.90
15072;DHT22;7635;56.696;13.002;2023-03-23T09:09:15;8.80;99.90
15072;DHT22;7635;56.696;13.002;2023-03-23T09:12:05;8.90;99.90
15072;DHT22;7635;56.696;13.002;2023-03-23T09:14:32;8.80;99.90
15072;DHT22;7635;56.696;13.002;2023-03-23T09:17:05;8.80;99.90
15072;DHT22;7635;56.696;13.002;2023-03-23T09:19:43;8.80;99.90
15072;DHT22;7635;56.696;13.002;2023-03-23T09:22:14;8.80;99.90
15072;DHT22;7635;56.696;13.002;2023-03-23T09:24:45;8.80;99.90
15072;DHT22;7635;56.696;13.002;2023-03-23T09:27:19;8.80;99.90
15072;DHT22;7635;56.696;13.002;2023-03-23T09:30:09;8.80;99.90
15072;DHT22;7635;56.696;13.002;2023-03-23T09:32:45;8.80;99.90
15072;DHT22;7635;56.696;13.002;2023-03-23T09:35:18;8.80;99.90
15072;DHT22;7635;56.696;13.002;2023-03-23T09:38:14;8.80;99.90
15072;DHT22;7635;56.696;13.002;2023-03-23T09:40:45;8.80;99.90
15072;DHT22;7635;56.696;13.002;2023-03-23T09:43:42;8.80;99.90
15072;DHT22;7635;56.696;13.002;2023-03-23T09:46:26;8.80;99.90
15072;DHT22;7635;56.696;13.002;2023-03-23T09:48:56;8.80;99.90
15072;DHT22;7635;56.696;13.002;2023-03-23T09:51:39;8.90;99.90
15072;DHT22;7635;56.696;13.002;2023-03-23T09:54:13;8.90;99.90
15072;DHT22;7635;56.696;13.002;2023-03-23T09:56:41;8.80;99.90
15072;DHT22;7635;56.696;13.002;2023-03-23T09:59:31;8.90;99.90
15072;DHT22;7635;56.696;13.002;2023-03-23T10:02:21;8.90;99.90
15072;DHT22;7635;56.696;13.002;2023-03-23T10:04:51;8.90;99.90
15072;DHT22;7635;56.696;13.002;2023-03-23T10:07:22;8.90;99.90
15072;DHT22;7635;56.696;13.002;2023-03-23T10:10:00;8.90;99.90
15072;DHT22;7635;56.696;13.002;2023-03-23T10:12:45;8.90;99.90
15072;DHT22;7635;56.696;13.002;2023-03-23T10:15:28;8.90;99.90
15072;DHT22;7635;56.696;13.002;2023-03-23T10:18:01;8.90;99.90
15072;DHT22;7635;56.696;13.002;2023-03-23T10:20:37;8.90;99.90
15072;DHT22;7635;56.696;13.002;2023-03-23T10:23:13;8.90;99.90
15072;DHT22;7635;56.696;13.002;2023-03-23T10:25:52;8.90;99.90
15072;DHT22;7635;56.696;13.002;2023-03-23T10:28:39;9.00;99.90
15072;DHT22;7635;56.696;13.002;2023-03-23T10:31:12;9.00;99.90
15072;DHT22;7635;56.696;13.002;2023-03-23T10:33:56;9.00;99.90
15072;DHT22;7635;56.696;13.002;2023-03-23T10:36:28;9.00;99.90
15072;DHT22;7635;56.696;13.002;2023-03-23T10:39:02;9.10;99.90
15072;DHT22;7635;56.696;13.002;2023-03-23T10:41:30;9.20;99.90
15072;DHT22;7635;56.696;13.002;2023-03-23T10:43:57;9.20;99.90
15072;DHT22;7635;56.696;13.002;2023-03-23T10:46:33;9.30;99.90
15072;DHT22;7635;56.696;13.002;2023-03-23T10:49:08;9.30;99.90
15072;DHT22;7635;56.696;13.002;2023-03-23T10:51:59;9.40;99.90
15072;DHT22;7635;56.696;13.002;2023-03-23T10:55:09;9.40;99.90
15072;DHT22;7635;56.696;13.002;2023-03-23T10:57:58;9.40;99.90
15072;DHT22;7635;56.696;13.002;2023-03-23T11:00:33;9.40;99.90
15072;DHT22;7635;56.696;13.002;2023-03-23T11:03:42;9.30;99.90
15072;DHT22;7635;56.696;13.002;2023-03-23T11:06:12;9.30;99.90
15072;DHT22;7635;56.696;13.002;2023-03-23T11:08:52;9.20;99.90
15072;DHT22;7635;56.696;13.002;2023-03-23T11:11:28;9.20;99.90
15072;DHT22;7635;56.696;13.002;2023-03-23T11:16:44;9.20;99.90
15072;DHT22;7635;56.696;13.002;2023-03-23T11:24:54;9.20;99.90
15072;DHT22;7635;56.696;13.002;2023-03-23T11:27:29;9.20;99.90
15072;DHT22;7635;56.696;13.002;2023-03-23T11:30:20;9.10;99.90
15072;DHT22;7635;56.696;13.002;2023-03-23T11:32:55;9.10;99.90
15072;DHT22;7635;56.696;13.002;2023-03-23T11:35:48;9.10;99.90
15072;DHT22;7635;56.696;13.002;2023-03-23T11:38:17;9.10;99.90
15072;DHT22;7635;56.696;13.002;2023-03-23T11:40:48;9.10;99.90
15072;DHT22;7635;56.696;13.002;2023-03-23T11:43:21;9.00;99.90
15072;DHT22;7635;56.696;13.002;2023-03-23T11:48:57;9.10;99.90
15072;DHT22;7635;56.696;13.002;2023-03-23T11:51:41;9.10;99.90
15072;DHT22;7635;56.696;13.002;2023-03-23T11:54:15;9.10;99.90
15072;DHT22;7635;56.696;13.002;2023-03-23T11:56:44;9.20;99.90
15072;DHT22;7635;56.696;13.002;2023-03-23T11:59:31;9.20;99.90
15072;DHT22;7635;56.696;13.002;2023-03-23T12:02:09;9.10;99.90
15072;DHT22;7635;56.696;13.002;2023-03-23T12:04:57;9.10;99.90
15072;DHT22;7635;56.696;13.002;2023-03-23T12:07:37;9.10;99.90
15072;DHT22;7635;56.696;13.002;2023-03-23T12:10:18;9.10;99.90
15072;DHT22;7635;56.696;13.002;2023-03-23T12:12:53;9.10;99.90
15072;DHT22;7635;56.696;13.002;2023-03-23T12:15:27;9.00;99.90
15072;DHT22;7635;56.696;13.002;2023-03-23T12:18:03;9.00;99.90
15072;DHT22;7635;56.696;13.002;2023-03-23T12:20:39;8.90;99.90
15072;DHT22;7635;56.696;13.002;2023-03-23T12:23:23;9.00;99.90
15072;DHT22;7635;56.696;13.002;2023-03-23T12:26:21;8.90;99.90
15072;DHT22;7635;56.696;13.002;2023-03-23T12:29:11;8.90;99.90
15072;DHT22;7635;56.696;13.002;2023-03-23T12:31:54;8.90;99.90
15072;DHT22;7635;56.696;13.002;2023-03-23T12:34:34;8.90;99.90
15072;DHT22;7635;56.696;13.002;2023-03-23T12:37:16;8.90;99.90
15072;DHT22;7635;56.696;13.002;2023-03-23T12:43:02;8.90;99.90
15072;DHT22;7635;56.696;13.002;2023-03-23T12:45:52;8.90;99.90
15072;DHT22;7635;56.696;13.002;2023-03-23T12:48:35;8.90;99.90
15072;DHT22;7635;56.696;13.002;2023-03-23T12:57:07;8.90;99.90
15072;DHT22;7635;56.696;13.002;2023-03-23T12:59:44;8.90;99.90
15072;DHT22;7635;56.696;13.002;2023-03-23T13:02:19;8.90;99.90
15072;DHT22;7635;56.696;13.002;2023-03-23T13:04:51;8.90;99.90
15072;DHT22;7635;56.696;13.002;2023-03-23T13:07:24;8.90;99.90
15072;DHT22;7635;56.696;13.002;2023-03-23T13:10:02;8.90;99.90
15072;DHT22;7635;56.696;13.002;2023-03-23T13:12:30;9.00;99.90
15072;DHT22;7635;56.696;13.002;2023-03-23T13:15:16;9.00;99.90
15072;DHT22;7635;56.696;13.002;2023-03-23T13:18:10;9.00;99.90
15072;DHT22;7635;56.696;13.002;2023-03-23T13:20:50;8.90;99.90
15072;DHT22;7635;56.696;13.002;2023-03-23T13:23:41;8.90;99.90
15072;DHT22;7635;56.696;13.002;2023-03-23T13:26:11;9.00;99.90
15072;DHT22;7635;56.696;13.002;2023-03-23T13:28:56;9.00;99.90
15072;DHT22;7635;56.696;13.002;2023-03-23T13:32:04;9.00;99.90
15072;DHT22;7635;56.696;13.002;2023-03-23T13:34:32;9.00;99.90
15072;DHT22;7635;56.696;13.002;2023-03-23T13:37:20;9.10;99.90
15072;DHT22;7635;56.696;13.002;2023-03-23T13:40:29;9.10;99.90
15072;DHT22;7635;56.696;13.002;2023-03-23T13:43:07;9.00;99.90
15072;DHT22;7635;56.696;13.002;2023-03-23T13:45:42;9.00;99.90
15072;DHT22;7635;56.696;13.002;2023-03-23T13:48:44;9.00;99.90
15072;DHT22;7635;56.696;13.002;2023-03-23T13:51:31;9.10;99.90
15072;DHT22;7635;56.696;13.002;2023-03-23T13:54:19;9.20;99.90
15072;DHT22;7635;56.696;13.002;2023-03-23T13:56:54;9.30;99.90
15072;DHT22;7635;56.696;13.002;2023-03-23T13:59:33;9.30;99.90
15072;DHT22;7635;56.696;13.002;2023-03-23T14:05:35;9.30;99.90
15072;DHT22;7635;56.696;13.002;2023-03-23T14:08:14;9.30;99.90
15072;DHT22;7635;56.696;13.002;2023-03-23T14:10:55;9.30;99.90
15072;DHT22;7635;56.696;13.002;2023-03-23T14:13:36;9.30;99.90
15072;DHT22;7635;56.696;13.002;2023-03-23T14:16:13;9.30;99.90
15072;DHT22;7635;56.696;13.002;2023-03-23T14:18:51;9.40;99.90
15072;DHT22;7635;56.696;13.002;2023-03-23T14:21:51;9.40;99.90
15072;DHT22;7635;56.696;13.002;2023-03-23T14:24:39;9.40;99.90
15072;DHT22;7635;56.696;13.002;2023-03-23T14:27:17;9.50;99.90
15072;DHT22;7635;56.696;13.002;2023-03-23T14:29:56;9.60;99.90
15072;DHT22;7635;56.696;13.002;2023-03-23T14:32:30;9.60;99.90
15072;DHT22;7635;56.696;13.002;2023-03-23T14:35:08;9.70;99.90
15072;DHT22;7635;56.696;13.002;2023-03-23T14:37:36;9.70;99.90
15072;DHT22;7635;56.696;13.002;2023-03-23T14:40:05;9.70;99.90
15072;DHT22;7635;56.696;13.002;2023-03-23T14:42:37;9.70;99.90
15072;DHT22;7635;56.696;13.002;2023-03-23T14:45:21;9.70;99.90
15072;DHT22;7635;56.696;13.002;2023-03-23T14:47:51;9.70;99.90
15072;DHT22;7635;56.696;13.002;2023-03-23T14:50:40;9.60;99.90
15072;DHT22;7635;56.696;13.002;2023-03-23T14:53:16;9.70;99.90
15072;DHT22;7635;56.696;13.002;2023-03-23T14:55:59;9.70;99.90
15072;DHT22;7635;56.696;13.002;2023-03-23T14:58:37;9.70;99.90
15072;DHT22;7635;56.696;13.002;2023-03-23T15:01:07;9.70;99.90
15072;DHT22;7635;56.696;13.002;2023-03-23T15:03:43;9.70;99.90
15072;DHT22;7635;56.696;13.002;2023-03-23T15:06:14;9.70;99.90
15072;DHT22;7635;56.696;13.002;2023-03-23T15:08:43;9.70;99.90
15072;DHT22;7635;56.696;13.002;2023-03-23T15:11:22;9.60;99.90
15072;DHT22;7635;56.696;13.002;2023-03-23T15:13:54;9.50;99.90
15072;DHT22;7635;56.696;13.002;2023-03-23T15:16:25;9.60;99.90
15072;DHT22;7635;56.696;13.002;2023-03-23T15:18:55;9.60;99.90
15072;DHT22;7635;56.696;13.002;2023-03-23T15:24:33;9.50;99.90
15072;DHT22;7635;56.696;13.002;2023-03-23T15:27:11;9.50;99.90
15072;DHT22;7635;56.696;13.002;2023-03-23T15:29:48;9.50;99.90
15072;DHT22;7635;56.696;13.002;2023-03-23T15:32:27;9.50;99.90
15072;DHT22;7635;56.696;13.002;2023-03-23T15:35:12;9.40;99.90
15072;DHT22;7635;56.696;13.002;2023-03-23T15:37:45;9.40;99.90
15072;DHT22;7635;56.696;13.002;2023-03-23T15:40:44;9.20;99.90
15072;DHT22;7635;56.696;13.002;2023-03-23T15:43:16;9.20;99.90
15072;DHT22;7635;56.696;13.002;2023-03-23T15:45:57;9.20;99.90
15072;DHT22;7635;56.696;13.002;2023-03-23T15:48:47;9.20;99.90
15072;DHT22;7635;56.696;13.002;2023-03-23T15:51:15;9.20;99.90
15072;DHT22;7635;56.696;13.002;2023-03-23T15:53:43;9.20;99.90
15072;DHT22;7635;56.696;13.002;2023-03-23T15:56:11;9.10;99.90
15072;DHT22;7635;56.696;13.002;2023-03-23T15:58:39;9.00;99.90
15072;DHT22;7635;56.696;13.002;2023-03-23T16:01:19;9.00;99.90
15072;DHT22;7635;56.696;13.002;2023-03-23T16:03:51;9.00;99.90
15072;DHT22;7635;56.696;13.002;2023-03-23T16:06:21;9.00;99.90
15072;DHT22;7635;56.696;13.002;2023-03-23T16:08:57;8.90;99.90
15072;DHT22;7635;56.696;13.002;2023-03-23T16:11:46;8.90;99.90
15072;DHT22;7635;56.696;13.002;2023-03-23T16:14:43;8.80;99.90
15072;DHT22;7635;56.696;13.002;2023-03-23T16:17:15;8.70;99.90
15072;DHT22;7635;56.696;13.002;2023-03-23T16:19:56;8.70;99.90
15072;DHT22;7635;56.696;13.002;2023-03-23T16:22:24;8.70;99.90
15072;DHT22;7635;56.696;13.002;2023-03-23T16:25:09;8.60;99.90
15072;DHT22;7635;56.696;13.002;2023-03-23T16:27:36;8.60;99.90
15072;DHT22;7635;56.696;13.002;2023-03-23T16:30:14;8.50;99.90
15072;DHT22;7635;56.696;13.002;2023-03-23T16:33:00;8.50;99.90
15072;DHT22;7635;56.696;13.002;2023-03-23T16:35:28;8.40;99.90
15072;DHT22;7635;56.696;13.002;2023-03-23T16:37:56;8.40;99.90
15072;DHT22;7635;56.696;13.002;2023-03-23T16:40:24;8.40;99.90
15072;DHT22;7635;56.696;13.002;2023-03-23T16:42:58;8.30;99.90
15072;DHT22;7635;56.696;13.002;2023-03-23T16:46:00;8.30;99.90
15072;DHT22;7635;56.696;13.002;2023-03-23T16:48:29;8.20;99.90
15072;DHT22;7635;56.696;13.002;2023-03-23T16:50:56;8.20;99.90
15072;DHT22;7635;56.696;13.002;2023-03-23T16:56:37;8.10;99.90
15072;DHT22;7635;56.696;13.002;2023-03-23T16:59:15;8.00;99.90
15072;DHT22;7635;56.696;13.002;2023-03-23T17:02:10;8.00;99.90
15072;DHT22;7635;56.696;13.002;2023-03-23T17:04:54;8.00;99.90
15072;DHT22;7635;56.696;13.002;2023-03-23T17:07:56;8.00;99.90
15072;DHT22;7635;56.696;13.002;2023-03-23T17:10:26;8.00;99.90
15072;DHT22;7635;56.696;13.002;2023-03-23T17:15:42;8.00;99.90
15072;DHT22;7635;56.696;13.002;2023-03-23T17:18:09;8.00;99.90
15072;DHT22;7635;56.696;13.002;2023-03-23T17:20:43;8.00;99.90
15072;DHT22;7635;56.696;13.002;2023-03-23T17:23:10;8.00;99.90
15072;DHT22;7635;56.696;13.002;2023-03-23T17:25:43;8.00;99.90
15072;DHT22;7635;56.696;13.002;2023-03-23T17:28:14;7.90;99.90
15072;DHT22;7635;56.696;13.002;2023-03-23T17:30:42;8.00;99.90
15072;DHT22;7635;56.696;13.002;2023-03-23T17:33:10;7.90;99.90
15072;DHT22;7635;56.696;13.002;2023-03-23T17:35:40;7.90;99.90
15072;DHT22;7635;56.696;13.002;2023-03-23T17:38:09;7.90;99.90
15072;DHT22;7635;56.696;13.002;2023-03-23T17:40:55;7.80;99.90